sensor_id;sensor_type;location;lat;lon;timestamp;P1;durP1;ratioP1;P2;durP2;ratioP2
48199;SDS011;33990;44.602;10.976;2023-04-28T00:00:51;3.45;;;1.48;;
48199;SDS011;33990;44.602;10.976;2023-04-28T00:03:19;4.95;;;1.80;;
48199;SDS011;33990;44.602;10.976;2023-04-28T00:05:46;3.70;;;1.63;;
48199;SDS011;33990;44.602;10.976;2023-04-28T00:08:15;3.42;;;1.45;;
48199;SDS011;33990;44.602;10.976;2023-04-28T00:10:42;4.25;;;1.50;;
48199;SDS011;33990;44.602;10.976;2023-04-28T00:13:10;3.50;;;1.40;;
48199;SDS011;33990;44.602;10.976;2023-04-28T00:15:37;4.18;;;1.92;;
48199;SDS011;33990;44.602;10.976;2023-04-28T00:18:05;5.63;;;1.50;;
48199;SDS011;33990;44.602;10.976;2023-04-28T00:20:32;2.60;;;1.33;;
48199;SDS011;33990;44.602;10.976;2023-04-28T00:22:59;2.75;;;1.20;;
48199;SDS011;33990;44.602;10.976;2023-04-28T00:25:26;4.05;;;1.67;;
48199;SDS011;33990;44.602;10.976;2023-04-28T00:27:54;6.22;;;1.50;;
48199;SDS011;33990;44.602;10.976;2023-04-28T00:30:21;2.85;;;1.40;;
48199;SDS011;33990;44.602;10.976;2023-04-28T00:32:50;2.30;;;1.30;;
48199;SDS011;33990;44.602;10.976;2023-04-28T00:35:18;3.53;;;1.08;;
48199;SDS011;33990;44.602;10.976;2023-04-28T00:37:45;3.00;;;1.58;;
48199;SDS011;33990;44.602;10.976;2023-04-28T00:40:12;2.78;;;1.20;;
48199;SDS011;33990;44.602;10.976;2023-04-28T00:42:40;3.13;;;1.85;;
48199;SDS011;33990;44.602;10.976;2023-04-28T00:45:08;2.63;;;1.52;;
48199;SDS011;33990;44.602;10.976;2023-04-28T00:47:36;2.42;;;1.10;;
48199;SDS011;33990;44.602;10.976;2023-04-28T00:50:04;2.88;;;1.45;;
48199;SDS011;33990;44.602;10.976;2023-04-28T00:52:32;3.33;;;1.48;;
48199;SDS011;33990;44.602;10.976;2023-04-28T00:55:00;2.58;;;1.15;;
48199;SDS011;33990;44.602;10.976;2023-04-28T00:57:28;5.15;;;1.70;;
48199;SDS011;33990;44.602;10.976;2023-04-28T00:59:59;3.65;;;1.70;;
48199;SDS011;33990;44.602;10.976;2023-04-28T01:02:27;2.33;;;1.23;;
48199;SDS011;33990;44.602;10.976;2023-04-28T01:04:57;3.45;;;1.45;;
48199;SDS011;33990;44.602;10.976;2023-04-28T01:07:26;4.03;;;1.38;;
48199;SDS011;33990;44.602;10.976;2023-04-28T01:09:55;4.63;;;1.50;;
48199;SDS011;33990;44.602;10.976;2023-04-28T01:12:27;3.55;;;1.40;;
48199;SDS011;33990;44.602;10.976;2023-04-28T01:14:55;3.25;;;1.33;;
48199;SDS011;33990;44.602;10.976;2023-04-28T01:17:23;2.85;;;1.50;;
48199;SDS011;33990;44.602;10.976;2023-04-28T01:19:51;3.78;;;1.52;;
48199;SDS011;33990;44.602;10.976;2023-04-28T01:22:19;2.95;;;1.50;;
48199;SDS011;33990;44.602;10.976;2023-04-28T01:24:46;3.85;;;1.50;;
48199;SDS011;33990;44.602;10.976;2023-04-28T01:27:13;2.72;;;1.40;;
48199;SDS011;33990;44.602;10.976;2023-04-28T01:29:41;3.28;;;1.30;;
48199;SDS011;33990;44.602;10.976;2023-04-28T01:32:08;3.78;;;1.45;;
48199;SDS011;33990;44.602;10.976;2023-04-28T01:34:36;2.05;;;1.08;;
48199;SDS011;33990;44.602;10.976;2023-04-28T01:37:05;2.80;;;1.45;;
48199;SDS011;33990;44.602;10.976;2023-04-28T01:39:32;2.70;;;1.48;;
48199;SDS011;33990;44.602;10.976;2023-04-28T01:42:02;3.33;;;1.50;;
48199;SDS011;33990;44.602;10.976;2023-04-28T01:44:29;2.15;;;1.15;;
48199;SDS011;33990;44.602;10.976;2023-04-28T01:46:57;2.97;;;1.40;;
48199;SDS011;33990;44.602;10.976;2023-04-28T01:49:24;2.85;;;1.40;;
48199;SDS011;33990;44.602;10.976;2023-04-28T01:51:52;3.30;;;1.38;;
48199;SDS011;33990;44.602;10.976;2023-04-28T01:54:19;3.85;;;2.00;;
48199;SDS011;33990;44.602;10.976;2023-04-28T01:56:48;3.42;;;1.30;;
48199;SDS011;33990;44.602;10.976;2023-04-28T01:59:16;2.17;;;1.15;;
48199;SDS011;33990;44.602;10.976;2023-04-28T02:01:45;5.68;;;1.58;;
48199;SDS011;33990;44.602;10.976;2023-04-28T02:04:13;3.58;;;1.38;;
48199;SDS011;33990;44.602;10.976;2023-04-28T02:06:41;2.30;;;1.30;;
48199;SDS011;33990;44.602;10.976;2023-04-28T02:09:08;2.45;;;1.25;;
48199;SDS011;33990;44.602;10.976;2023-04-28T02:11:35;3.78;;;1.70;;
48199;SDS011;33990;44.602;10.976;2023-04-28T02:14:03;3.10;;;1.35;;
48199;SDS011;33990;44.602;10.976;2023-04-28T02:16:30;2.20;;;1.15;;
48199;SDS011;33990;44.602;10.976;2023-04-28T02:18:59;2.40;;;1.35;;
48199;SDS011;33990;44.602;10.976;2023-04-28T02:21:27;2.60;;;1.45;;
48199;SDS011;33990;44.602;10.976;2023-04-28T02:23:54;2.95;;;1.40;;
48199;SDS011;33990;44.602;10.976;2023-04-28T02:26:22;3.25;;;1.50;;
48199;SDS011;33990;44.602;10.976;2023-04-28T02:28:50;2.63;;;1.50;;
48199;SDS011;33990;44.602;10.976;2023-04-28T02:31:18;2.95;;;1.48;;
48199;SDS011;33990;44.602;10.976;2023-04-28T02:33:45;2.50;;;1.42;;
48199;SDS011;33990;44.602;10.976;2023-04-28T02:36:13;2.50;;;1.50;;
48199;SDS011;33990;44.602;10.976;2023-04-28T02:38:40;4.78;;;1.55;;
48199;SDS011;33990;44.602;10.976;2023-04-28T02:41:07;3.83;;;1.50;;
48199;SDS011;33990;44.602;10.976;2023-04-28T02:43:35;2.70;;;1.50;;
48199;SDS011;33990;44.602;10.976;2023-04-28T02:46:03;2.75;;;1.63;;
48199;SDS011;33990;44.602;10.976;2023-04-28T02:48:31;3.85;;;1.95;;
48199;SDS011;33990;44.602;10.976;2023-04-28T02:51:01;2.95;;;1.50;;
48199;SDS011;33990;44.602;10.976;2023-04-28T02:53:30;2.95;;;1.65;;
48199;SDS011;33990;44.602;10.976;2023-04-28T02:55:57;2.58;;;1.65;;
48199;SDS011;33990;44.602;10.976;2023-04-28T02:58:25;2.50;;;1.40;;
48199;SDS011;33990;44.602;10.976;2023-04-28T03:00:52;3.92;;;1.90;;
48199;SDS011;33990;44.602;10.976;2023-04-28T03:03:20;3.22;;;1.60;;
48199;SDS011;33990;44.602;10.976;2023-04-28T03:05:47;5.32;;;1.52;;
48199;SDS011;33990;44.602;10.976;2023-04-28T03:08:15;3.03;;;1.65;;
48199;SDS011;33990;44.602;10.976;2023-04-28T03:10:43;2.40;;;1.27;;
48199;SDS011;33990;44.602;10.976;2023-04-28T03:13:10;5.28;;;1.70;;
48199;SDS011;33990;44.602;10.976;2023-04-28T03:15:38;3.45;;;1.50;;
48199;SDS011;33990;44.602;10.976;2023-04-28T03:18:06;2.80;;;1.50;;
48199;SDS011;33990;44.602;10.976;2023-04-28T03:20:33;4.07;;;1.70;;
48199;SDS011;33990;44.602;10.976;2023-04-28T03:23:00;2.78;;;1.17;;
48199;SDS011;33990;44.602;10.976;2023-04-28T03:25:28;2.50;;;1.60;;
48199;SDS011;33990;44.602;10.976;2023-04-28T03:27:56;4.20;;;1.40;;
48199;SDS011;33990;44.602;10.976;2023-04-28T03:30:24;4.97;;;1.83;;
48199;SDS011;33990;44.602;10.976;2023-04-28T03:32:52;2.53;;;1.63;;
48199;SDS011;33990;44.602;10.976;2023-04-28T03:35:19;2.80;;;1.38;;
48199;SDS011;33990;44.602;10.976;2023-04-28T03:37:47;2.80;;;1.65;;
48199;SDS011;33990;44.602;10.976;2023-04-28T03:40:15;3.97;;;1.73;;
48199;SDS011;33990;44.602;10.976;2023-04-28T03:43:20;2.88;;;1.60;;
48199;SDS011;33990;44.602;10.976;2023-04-28T03:46:08;2.30;;;1.30;;
48199;SDS011;33990;44.602;10.976;2023-04-28T03:48:35;3.70;;;1.60;;
48199;SDS011;33990;44.602;10.976;2023-04-28T03:51:03;3.97;;;1.63;;
48199;SDS011;33990;44.602;10.976;2023-04-28T03:53:30;3.63;;;1.20;;
48199;SDS011;33990;44.602;10.976;2023-04-28T03:55:58;3.25;;;1.55;;
48199;SDS011;33990;44.602;10.976;2023-04-28T03:58:25;2.88;;;1.60;;
48199;SDS011;33990;44.602;10.976;2023-04-28T04:00:53;3.22;;;1.60;;
48199;SDS011;33990;44.602;10.976;2023-04-28T04:03:21;2.63;;;1.63;;
48199;SDS011;33990;44.602;10.976;2023-04-28T04:05:55;3.85;;;1.60;;
48199;SDS011;33990;44.602;10.976;2023-04-28T04:08:22;3.65;;;1.50;;
48199;SDS011;33990;44.602;10.976;2023-04-28T04:10:50;2.28;;;1.40;;
48199;SDS011;33990;44.602;10.976;2023-04-28T04:13:18;3.65;;;1.73;;
48199;SDS011;33990;44.602;10.976;2023-04-28T04:15:46;2.42;;;1.45;;
48199;SDS011;33990;44.602;10.976;2023-04-28T04:18:15;2.38;;;1.30;;
48199;SDS011;33990;44.602;10.976;2023-04-28T04:23:36;3.40;;;1.67;;
48199;SDS011;33990;44.602;10.976;2023-04-28T04:26:03;3.00;;;1.65;;
48199;SDS011;33990;44.602;10.976;2023-04-28T04:28:31;5.03;;;1.70;;
48199;SDS011;33990;44.602;10.976;2023-04-28T04:30:58;3.60;;;1.58;;
48199;SDS011;33990;44.602;10.976;2023-04-28T04:33:25;3.80;;;1.67;;
48199;SDS011;33990;44.602;10.976;2023-04-28T04:35:53;3.45;;;1.73;;
48199;SDS011;33990;44.602;10.976;2023-04-28T04:38:20;2.70;;;1.50;;
48199;SDS011;33990;44.602;10.976;2023-04-28T04:40:48;2.95;;;1.60;;
48199;SDS011;33990;44.602;10.976;2023-04-28T04:43:15;3.03;;;1.45;;
48199;SDS011;33990;44.602;10.976;2023-04-28T04:45:46;3.35;;;1.80;;
48199;SDS011;33990;44.602;10.976;2023-04-28T04:48:15;3.22;;;1.73;;
48199;SDS011;33990;44.602;10.976;2023-04-28T04:50:43;3.13;;;1.58;;
48199;SDS011;33990;44.602;10.976;2023-04-28T04:53:10;2.45;;;1.45;;
48199;SDS011;33990;44.602;10.976;2023-04-28T04:55:42;3.30;;;1.53;;
48199;SDS011;33990;44.602;10.976;2023-04-28T04:58:10;3.35;;;1.85;;
48199;SDS011;33990;44.602;10.976;2023-04-28T05:01:00;3.58;;;1.45;;
48199;SDS011;33990;44.602;10.976;2023-04-28T05:03:28;3.05;;;1.67;;
48199;SDS011;33990;44.602;10.976;2023-04-28T05:05:55;2.45;;;1.65;;
48199;SDS011;33990;44.602;10.976;2023-04-28T05:08:42;2.63;;;1.60;;
48199;SDS011;33990;44.602;10.976;2023-04-28T05:11:09;2.83;;;1.42;;
48199;SDS011;33990;44.602;10.976;2023-04-28T05:13:37;2.85;;;1.70;;
48199;SDS011;33990;44.602;10.976;2023-04-28T05:16:06;2.83;;;1.30;;
48199;SDS011;33990;44.602;10.976;2023-04-28T05:18:36;3.85;;;1.58;;
48199;SDS011;33990;44.602;10.976;2023-04-28T05:21:04;3.85;;;1.60;;
48199;SDS011;33990;44.602;10.976;2023-04-28T05:23:32;3.95;;;2.17;;
48199;SDS011;33990;44.602;10.976;2023-04-28T05:26:00;2.70;;;1.35;;
48199;SDS011;33990;44.602;10.976;2023-04-28T05:28:29;5.28;;;1.70;;
48199;SDS011;33990;44.602;10.976;2023-04-28T05:31:00;3.25;;;1.92;;
48199;SDS011;33990;44.602;10.976;2023-04-28T05:33:29;3.80;;;1.60;;
48199;SDS011;33990;44.602;10.976;2023-04-28T05:35:57;3.22;;;1.58;;
48199;SDS011;33990;44.602;10.976;2023-04-28T05:38:24;4.70;;;2.28;;
48199;SDS011;33990;44.602;10.976;2023-04-28T05:40:53;2.80;;;1.40;;
48199;SDS011;33990;44.602;10.976;2023-04-28T05:43:20;6.05;;;2.08;;
48199;SDS011;33990;44.602;10.976;2023-04-28T05:45:49;4.13;;;2.25;;
48199;SDS011;33990;44.602;10.976;2023-04-28T05:48:16;3.97;;;1.77;;
48199;SDS011;33990;44.602;10.976;2023-04-28T05:50:44;4.55;;;2.05;;
48199;SDS011;33990;44.602;10.976;2023-04-28T05:53:12;4.35;;;1.67;;
48199;SDS011;33990;44.602;10.976;2023-04-28T05:55:39;4.18;;;1.88;;
48199;SDS011;33990;44.602;10.976;2023-04-28T05:58:08;5.45;;;1.75;;
48199;SDS011;33990;44.602;10.976;2023-04-28T06:00:36;3.58;;;2.00;;
48199;SDS011;33990;44.602;10.976;2023-04-28T06:03:04;3.60;;;1.90;;
48199;SDS011;33990;44.602;10.976;2023-04-28T06:05:32;4.93;;;1.88;;
48199;SDS011;33990;44.602;10.976;2023-04-28T06:07:59;4.18;;;2.08;;
48199;SDS011;33990;44.602;10.976;2023-04-28T06:10:27;5.75;;;2.28;;
48199;SDS011;33990;44.602;10.976;2023-04-28T06:12:54;3.35;;;2.13;;
48199;SDS011;33990;44.602;10.976;2023-04-28T06:15:22;3.10;;;1.88;;
48199;SDS011;33990;44.602;10.976;2023-04-28T06:17:49;3.17;;;1.85;;
48199;SDS011;33990;44.602;10.976;2023-04-28T06:20:17;3.17;;;1.92;;
48199;SDS011;33990;44.602;10.976;2023-04-28T06:22:44;5.13;;;2.28;;
48199;SDS011;33990;44.602;10.976;2023-04-28T06:25:12;6.88;;;2.70;;
48199;SDS011;33990;44.602;10.976;2023-04-28T06:27:44;6.20;;;2.42;;
48199;SDS011;33990;44.602;10.976;2023-04-28T06:30:18;6.25;;;2.50;;
48199;SDS011;33990;44.602;10.976;2023-04-28T06:32:47;3.53;;;2.15;;
48199;SDS011;33990;44.602;10.976;2023-04-28T06:35:15;4.20;;;2.08;;
48199;SDS011;33990;44.602;10.976;2023-04-28T06:37:42;4.45;;;2.45;;
48199;SDS011;33990;44.602;10.976;2023-04-28T06:40:10;7.45;;;2.47;;
48199;SDS011;33990;44.602;10.976;2023-04-28T06:42:41;9.70;;;2.70;;
48199;SDS011;33990;44.602;10.976;2023-04-28T06:45:17;4.85;;;2.35;;
48199;SDS011;33990;44.602;10.976;2023-04-28T06:47:45;7.90;;;2.72;;
48199;SDS011;33990;44.602;10.976;2023-04-28T06:50:12;6.68;;;3.20;;
48199;SDS011;33990;44.602;10.976;2023-04-28T06:52:39;5.88;;;2.88;;
48199;SDS011;33990;44.602;10.976;2023-04-28T06:55:07;6.10;;;3.78;;
48199;SDS011;33990;44.602;10.976;2023-04-28T06:57:35;5.78;;;2.90;;
48199;SDS011;33990;44.602;10.976;2023-04-28T07:00:04;5.18;;;3.50;;
48199;SDS011;33990;44.602;10.976;2023-04-28T07:02:32;4.47;;;2.78;;
48199;SDS011;33990;44.602;10.976;2023-04-28T07:05:00;5.15;;;3.17;;
48199;SDS011;33990;44.602;10.976;2023-04-28T07:07:27;12.32;;;3.47;;
48199;SDS011;33990;44.602;10.976;2023-04-28T07:09:54;5.90;;;3.40;;
48199;SDS011;33990;44.602;10.976;2023-04-28T07:12:22;5.22;;;3.25;;
48199;SDS011;33990;44.602;10.976;2023-04-28T07:14:49;6.50;;;3.97;;
48199;SDS011;33990;44.602;10.976;2023-04-28T07:17:17;7.93;;;3.53;;
48199;SDS011;33990;44.602;10.976;2023-04-28T07:19:46;7.43;;;3.78;;
48199;SDS011;33990;44.602;10.976;2023-04-28T07:22:16;6.10;;;4.13;;
48199;SDS011;33990;44.602;10.976;2023-04-28T07:24:43;5.68;;;3.97;;
48199;SDS011;33990;44.602;10.976;2023-04-28T07:27:10;7.47;;;4.13;;
48199;SDS011;33990;44.602;10.976;2023-04-28T07:29:38;6.88;;;4.55;;
48199;SDS011;33990;44.602;10.976;2023-04-28T07:32:05;10.00;;;3.97;;
48199;SDS011;33990;44.602;10.976;2023-04-28T07:34:36;7.47;;;3.97;;
48199;SDS011;33990;44.602;10.976;2023-04-28T07:37:03;8.18;;;3.75;;
48199;SDS011;33990;44.602;10.976;2023-04-28T07:39:32;7.15;;;3.72;;
48199;SDS011;33990;44.602;10.976;2023-04-28T07:42:01;11.70;;;6.10;;
48199;SDS011;33990;44.602;10.976;2023-04-28T07:44:29;8.55;;;5.65;;
48199;SDS011;33990;44.602;10.976;2023-04-28T07:47:01;10.95;;;8.60;;
48199;SDS011;33990;44.602;10.976;2023-04-28T07:49:29;11.60;;;7.72;;
48199;SDS011;33990;44.602;10.976;2023-04-28T07:51:57;9.30;;;7.72;;
48199;SDS011;33990;44.602;10.976;2023-04-28T07:54:24;12.18;;;9.05;;
48199;SDS011;33990;44.602;10.976;2023-04-28T07:56:51;13.23;;;9.25;;
48199;SDS011;33990;44.602;10.976;2023-04-28T07:59:19;9.82;;;8.35;;
48199;SDS011;33990;44.602;10.976;2023-04-28T08:01:46;10.65;;;8.13;;
48199;SDS011;33990;44.602;10.976;2023-04-28T08:04:14;10.07;;;8.18;;
48199;SDS011;33990;44.602;10.976;2023-04-28T08:06:42;12.38;;;8.00;;
48199;SDS011;33990;44.602;10.976;2023-04-28T08:09:09;9.00;;;6.93;;
48199;SDS011;33990;44.602;10.976;2023-04-28T08:11:37;10.18;;;7.43;;
48199;SDS011;33990;44.602;10.976;2023-04-28T08:14:04;11.25;;;6.07;;
48199;SDS011;33990;44.602;10.976;2023-04-28T08:16:31;8.88;;;7.07;;
48199;SDS011;33990;44.602;10.976;2023-04-28T08:19:02;10.45;;;5.00;;
48199;SDS011;33990;44.602;10.976;2023-04-28T08:21:31;7.53;;;5.80;;
48199;SDS011;33990;44.602;10.976;2023-04-28T08:23:58;7.63;;;4.80;;
48199;SDS011;33990;44.602;10.976;2023-04-28T08:26:26;6.80;;;4.88;;
48199;SDS011;33990;44.602;10.976;2023-04-28T08:28:53;6.82;;;5.47;;
48199;SDS011;33990;44.602;10.976;2023-04-28T08:31:20;9.48;;;7.07;;
48199;SDS011;33990;44.602;10.976;2023-04-28T08:33:48;7.07;;;5.90;;
48199;SDS011;33990;44.602;10.976;2023-04-28T08:36:17;8.50;;;5.60;;
48199;SDS011;33990;44.602;10.976;2023-04-28T08:38:44;5.10;;;4.32;;
48199;SDS011;33990;44.602;10.976;2023-04-28T08:41:13;6.97;;;4.30;;
48199;SDS011;33990;44.602;10.976;2023-04-28T08:43:41;6.72;;;4.93;;
48199;SDS011;33990;44.602;10.976;2023-04-28T08:46:09;7.10;;;4.85;;
48199;SDS011;33990;44.602;10.976;2023-04-28T08:48:39;8.50;;;5.30;;
48199;SDS011;33990;44.602;10.976;2023-04-28T08:51:07;7.70;;;5.10;;
48199;SDS011;33990;44.602;10.976;2023-04-28T08:53:36;5.53;;;4.63;;
48199;SDS011;33990;44.602;10.976;2023-04-28T08:56:25;5.65;;;4.30;;
48199;SDS011;33990;44.602;10.976;2023-04-28T08:58:59;6.10;;;4.20;;
48199;SDS011;33990;44.602;10.976;2023-04-28T09:01:29;6.60;;;4.30;;
48199;SDS011;33990;44.602;10.976;2023-04-28T09:04:00;6.97;;;4.10;;
48199;SDS011;33990;44.602;10.976;2023-04-28T09:06:36;6.05;;;4.80;;
48199;SDS011;33990;44.602;10.976;2023-04-28T09:09:17;4.53;;;3.45;;
48199;SDS011;33990;44.602;10.976;2023-04-28T09:11:54;6.80;;;3.83;;
48199;SDS011;33990;44.602;10.976;2023-04-28T09:14:29;5.72;;;4.28;;
48199;SDS011;33990;44.602;10.976;2023-04-28T09:19:33;6.10;;;4.40;;
48199;SDS011;33990;44.602;10.976;2023-04-28T09:22:02;5.65;;;5.03;;
48199;SDS011;33990;44.602;10.976;2023-04-28T09:24:43;9.82;;;5.00;;
48199;SDS011;33990;44.602;10.976;2023-04-28T09:27:14;11.50;;;6.93;;
48199;SDS011;33990;44.602;10.976;2023-04-28T09:29:51;7.95;;;5.93;;
48199;SDS011;33990;44.602;10.976;2023-04-28T09:32:20;10.93;;;9.77;;
48199;SDS011;33990;44.602;10.976;2023-04-28T09:34:52;10.23;;;6.50;;
48199;SDS011;33990;44.602;10.976;2023-04-28T09:37:23;8.55;;;5.68;;
48199;SDS011;33990;44.602;10.976;2023-04-28T09:39:57;9.27;;;6.10;;
48199;SDS011;33990;44.602;10.976;2023-04-28T09:42:37;8.68;;;5.60;;
48199;SDS011;33990;44.602;10.976;2023-04-28T09:45:08;8.07;;;5.93;;
48199;SDS011;33990;44.602;10.976;2023-04-28T09:47:41;8.68;;;5.25;;
48199;SDS011;33990;44.602;10.976;2023-04-28T09:50:11;9.23;;;7.65;;
48199;SDS011;33990;44.602;10.976;2023-04-28T09:52:41;9.52;;;5.82;;
48199;SDS011;33990;44.602;10.976;2023-04-28T09:55:11;8.13;;;5.75;;
48199;SDS011;33990;44.602;10.976;2023-04-28T09:57:38;7.72;;;6.35;;
48199;SDS011;33990;44.602;10.976;2023-04-28T10:00:06;7.50;;;6.15;;
48199;SDS011;33990;44.602;10.976;2023-04-28T10:02:36;9.07;;;5.70;;
48199;SDS011;33990;44.602;10.976;2023-04-28T10:05:07;7.72;;;5.82;;
48199;SDS011;33990;44.602;10.976;2023-04-28T10:07:36;6.93;;;5.63;;
48199;SDS011;33990;44.602;10.976;2023-04-28T10:10:05;7.95;;;6.07;;
48199;SDS011;33990;44.602;10.976;2023-04-28T10:12:33;7.47;;;6.18;;
48199;SDS011;33990;44.602;10.976;2023-04-28T10:15:04;10.27;;;7.38;;
48199;SDS011;33990;44.602;10.976;2023-04-28T10:17:34;8.50;;;6.18;;
48199;SDS011;33990;44.602;10.976;2023-04-28T10:20:02;8.77;;;6.65;;
48199;SDS011;33990;44.602;10.976;2023-04-28T10:25:30;7.57;;;6.47;;
48199;SDS011;33990;44.602;10.976;2023-04-28T10:28:03;9.38;;;6.90;;
48199;SDS011;33990;44.602;10.976;2023-04-28T10:30:31;8.75;;;6.72;;
48199;SDS011;33990;44.602;10.976;2023-04-28T10:35:40;7.43;;;5.90;;
48199;SDS011;33990;44.602;10.976;2023-04-28T10:40:41;7.63;;;5.72;;
48199;SDS011;33990;44.602;10.976;2023-04-28T10:43:13;8.38;;;6.40;;
48199;SDS011;33990;44.602;10.976;2023-04-28T10:46:03;8.88;;;6.25;;
48199;SDS011;33990;44.602;10.976;2023-04-28T10:58:45;9.23;;;5.88;;
48199;SDS011;33990;44.602;10.976;2023-04-28T11:03:49;7.55;;;5.05;;
48199;SDS011;33990;44.602;10.976;2023-04-28T11:08:56;9.27;;;6.10;;
48199;SDS011;33990;44.602;10.976;2023-04-28T11:11:28;8.98;;;5.68;;
48199;SDS011;33990;44.602;10.976;2023-04-28T11:19:26;7.53;;;6.20;;
48199;SDS011;33990;44.602;10.976;2023-04-28T11:21:55;7.13;;;5.50;;
48199;SDS011;33990;44.602;10.976;2023-04-28T11:24:24;6.25;;;4.80;;
48199;SDS011;33990;44.602;10.976;2023-04-28T11:26:53;6.13;;;5.45;;
48199;SDS011;33990;44.602;10.976;2023-04-28T11:34:32;13.80;;;9.60;;
48199;SDS011;33990;44.602;10.976;2023-04-28T11:37:00;15.60;;;11.65;;
48199;SDS011;33990;44.602;10.976;2023-04-28T11:39:29;13.52;;;10.30;;
48199;SDS011;33990;44.602;10.976;2023-04-28T11:42:08;13.85;;;10.15;;
48199;SDS011;33990;44.602;10.976;2023-04-28T11:44:36;12.30;;;8.73;;
48199;SDS011;33990;44.602;10.976;2023-04-28T11:47:04;13.02;;;9.05;;
48199;SDS011;33990;44.602;10.976;2023-04-28T11:49:43;12.02;;;8.35;;
48199;SDS011;33990;44.602;10.976;2023-04-28T11:52:12;14.05;;;8.30;;
48199;SDS011;33990;44.602;10.976;2023-04-28T11:54:39;12.52;;;8.23;;
48199;SDS011;33990;44.602;10.976;2023-04-28T11:59:43;10.43;;;7.22;;
48199;SDS011;33990;44.602;10.976;2023-04-28T12:02:12;9.05;;;6.57;;
48199;SDS011;33990;44.602;10.976;2023-04-28T12:04:41;9.80;;;7.40;;
48199;SDS011;33990;44.602;10.976;2023-04-28T12:09:39;8.40;;;6.70;;
48199;SDS011;33990;44.602;10.976;2023-04-28T12:12:08;9.45;;;7.18;;
48199;SDS011;33990;44.602;10.976;2023-04-28T12:17:29;8.52;;;6.78;;
48199;SDS011;33990;44.602;10.976;2023-04-28T12:19:59;8.38;;;6.00;;
48199;SDS011;33990;44.602;10.976;2023-04-28T12:22:28;10.63;;;6.55;;
48199;SDS011;33990;44.602;10.976;2023-04-28T12:25:06;8.27;;;6.53;;
48199;SDS011;33990;44.602;10.976;2023-04-28T12:27:38;7.85;;;6.25;;
48199;SDS011;33990;44.602;10.976;2023-04-28T12:33:22;9.30;;;5.50;;
48199;SDS011;33990;44.602;10.976;2023-04-28T12:35:51;8.73;;;5.95;;
48199;SDS011;33990;44.602;10.976;2023-04-28T12:38:21;6.65;;;5.53;;
48199;SDS011;33990;44.602;10.976;2023-04-28T12:40:49;7.78;;;5.05;;
48199;SDS011;33990;44.602;10.976;2023-04-28T12:43:16;6.78;;;5.28;;
48199;SDS011;33990;44.602;10.976;2023-04-28T12:45:44;7.13;;;5.82;;
48199;SDS011;33990;44.602;10.976;2023-04-28T12:48:11;7.93;;;5.15;;
48199;SDS011;33990;44.602;10.976;2023-04-28T12:50:38;6.55;;;4.95;;
48199;SDS011;33990;44.602;10.976;2023-04-28T12:53:05;7.82;;;4.50;;
48199;SDS011;33990;44.602;10.976;2023-04-28T12:55:33;5.95;;;4.68;;
48199;SDS011;33990;44.602;10.976;2023-04-28T12:58:00;6.38;;;4.72;;
48199;SDS011;33990;44.602;10.976;2023-04-28T13:00:27;6.85;;;4.30;;
48199;SDS011;33990;44.602;10.976;2023-04-28T13:02:54;7.65;;;4.47;;
48199;SDS011;33990;44.602;10.976;2023-04-28T13:05:22;7.45;;;4.38;;
48199;SDS011;33990;44.602;10.976;2023-04-28T13:07:50;7.38;;;5.45;;
48199;SDS011;33990;44.602;10.976;2023-04-28T13:10:18;6.78;;;5.10;;
48199;SDS011;33990;44.602;10.976;2023-04-28T13:12:47;5.72;;;4.70;;
48199;SDS011;33990;44.602;10.976;2023-04-28T13:15:14;5.45;;;3.72;;
48199;SDS011;33990;44.602;10.976;2023-04-28T13:17:42;5.38;;;4.07;;
48199;SDS011;33990;44.602;10.976;2023-04-28T13:20:10;6.63;;;4.07;;
48199;SDS011;33990;44.602;10.976;2023-04-28T13:22:38;5.15;;;3.80;;
48199;SDS011;33990;44.602;10.976;2023-04-28T13:25:06;6.55;;;4.15;;
48199;SDS011;33990;44.602;10.976;2023-04-28T13:27:34;4.25;;;3.42;;
48199;SDS011;33990;44.602;10.976;2023-04-28T13:30:03;4.60;;;3.17;;
48199;SDS011;33990;44.602;10.976;2023-04-28T13:32:31;5.82;;;3.58;;
48199;SDS011;33990;44.602;10.976;2023-04-28T13:35:02;4.07;;;2.95;;
48199;SDS011;33990;44.602;10.976;2023-04-28T13:37:32;4.32;;;3.55;;
48199;SDS011;33990;44.602;10.976;2023-04-28T13:40:00;5.13;;;3.22;;
48199;SDS011;33990;44.602;10.976;2023-04-28T13:42:30;4.50;;;3.20;;
48199;SDS011;33990;44.602;10.976;2023-04-28T13:44:57;4.07;;;3.25;;
48199;SDS011;33990;44.602;10.976;2023-04-28T13:47:24;3.80;;;2.70;;
48199;SDS011;33990;44.602;10.976;2023-04-28T13:49:52;4.90;;;3.00;;
48199;SDS011;33990;44.602;10.976;2023-04-28T13:52:19;4.38;;;2.80;;
48199;SDS011;33990;44.602;10.976;2023-04-28T13:54:48;4.50;;;2.85;;
48199;SDS011;33990;44.602;10.976;2023-04-28T13:57:16;5.07;;;2.88;;
48199;SDS011;33990;44.602;10.976;2023-04-28T13:59:43;4.82;;;3.20;;
48199;SDS011;33990;44.602;10.976;2023-04-28T14:02:11;5.75;;;2.78;;
48199;SDS011;33990;44.602;10.976;2023-04-28T14:04:38;4.38;;;2.92;;
48199;SDS011;33990;44.602;10.976;2023-04-28T14:07:06;5.20;;;2.88;;
48199;SDS011;33990;44.602;10.976;2023-04-28T14:09:33;4.10;;;2.80;;
48199;SDS011;33990;44.602;10.976;2023-04-28T14:12:01;5.00;;;3.22;;
48199;SDS011;33990;44.602;10.976;2023-04-28T14:14:28;4.80;;;2.72;;
48199;SDS011;33990;44.602;10.976;2023-04-28T14:16:55;5.40;;;2.20;;
48199;SDS011;33990;44.602;10.976;2023-04-28T14:19:23;5.85;;;2.97;;
48199;SDS011;33990;44.602;10.976;2023-04-28T14:21:52;4.25;;;2.50;;
48199;SDS011;33990;44.602;10.976;2023-04-28T14:24:20;4.05;;;2.42;;
48199;SDS011;33990;44.602;10.976;2023-04-28T14:26:47;3.80;;;2.38;;
48199;SDS011;33990;44.602;10.976;2023-04-28T14:29:15;3.50;;;2.65;;
48199;SDS011;33990;44.602;10.976;2023-04-28T14:31:42;6.78;;;2.50;;
48199;SDS011;33990;44.602;10.976;2023-04-28T14:34:10;3.75;;;2.53;;
48199;SDS011;33990;44.602;10.976;2023-04-28T14:36:37;5.13;;;2.65;;
48199;SDS011;33990;44.602;10.976;2023-04-28T14:39:04;3.60;;;2.65;;
48199;SDS011;33990;44.602;10.976;2023-04-28T14:41:32;2.72;;;2.08;;
48199;SDS011;33990;44.602;10.976;2023-04-28T14:43:59;2.95;;;2.20;;
48199;SDS011;33990;44.602;10.976;2023-04-28T14:46:26;3.33;;;2.13;;
48199;SDS011;33990;44.602;10.976;2023-04-28T14:48:54;2.95;;;2.15;;
48199;SDS011;33990;44.602;10.976;2023-04-28T14:51:22;5.57;;;2.60;;
48199;SDS011;33990;44.602;10.976;2023-04-28T14:53:50;3.17;;;2.00;;
48199;SDS011;33990;44.602;10.976;2023-04-28T14:56:17;5.53;;;2.53;;
48199;SDS011;33990;44.602;10.976;2023-04-28T14:58:46;4.75;;;2.20;;
48199;SDS011;33990;44.602;10.976;2023-04-28T15:01:14;4.10;;;2.28;;
48199;SDS011;33990;44.602;10.976;2023-04-28T15:03:41;3.25;;;2.28;;
48199;SDS011;33990;44.602;10.976;2023-04-28T15:06:09;4.57;;;2.10;;
48199;SDS011;33990;44.602;10.976;2023-04-28T15:08:37;3.22;;;2.03;;
48199;SDS011;33990;44.602;10.976;2023-04-28T15:11:06;4.43;;;2.00;;
48199;SDS011;33990;44.602;10.976;2023-04-28T15:13:33;3.53;;;2.20;;
48199;SDS011;33990;44.602;10.976;2023-04-28T15:16:01;3.65;;;1.65;;
48199;SDS011;33990;44.602;10.976;2023-04-28T15:18:28;3.63;;;2.00;;
48199;SDS011;33990;44.602;10.976;2023-04-28T15:20:56;4.07;;;2.03;;
48199;SDS011;33990;44.602;10.976;2023-04-28T15:23:23;4.18;;;2.22;;
48199;SDS011;33990;44.602;10.976;2023-04-28T15:25:50;2.72;;;1.77;;
48199;SDS011;33990;44.602;10.976;2023-04-28T15:28:19;3.17;;;2.08;;
48199;SDS011;33990;44.602;10.976;2023-04-28T15:30:46;6.25;;;2.13;;
48199;SDS011;33990;44.602;10.976;2023-04-28T15:33:14;3.55;;;1.92;;